createdAt,value
2023-02-15T00:00:12.508Z,66.44
2023-02-15T00:03:00.346Z,66.21
2023-02-15T00:05:30.591Z,66.30
2023-02-15T00:07:58.477Z,67.12
2023-02-15T00:10:26.683Z,66.64
2023-02-15T00:12:54.524Z,67.06
2023-02-15T00:15:22.928Z,67.35
2023-02-15T00:17:50.795Z,68.06
2023-02-15T00:20:20.448Z,68.12
2023-02-15T00:22:48.319Z,68.31
2023-02-15T00:25:16.511Z,69.23
2023-02-15T00:27:44.406Z,69.63
2023-02-15T00:30:13.132Z,69.68
2023-02-15T00:32:40.995Z,69.98
2023-02-15T00:35:10.766Z,68.95
2023-02-15T00:37:38.764Z,68.05
2023-02-15T00:40:07.981Z,67.68
2023-02-15T00:42:35.968Z,67.20
2023-02-15T00:45:04.268Z,67.25
2023-02-15T00:47:33.538Z,67.79
2023-02-15T00:50:01.972Z,67.00
2023-02-15T00:52:30.076Z,67.17
2023-02-15T00:54:58.408Z,67.97
2023-02-15T00:57:26.246Z,67.05
2023-02-15T00:59:54.509Z,67.25
2023-02-15T01:02:22.524Z,66.70
2023-02-15T01:04:50.789Z,67.57
2023-02-15T01:07:18.734Z,67.67
2023-02-15T01:09:47.009Z,67.29
2023-02-15T01:12:14.994Z,67.08
2023-02-15T01:14:43.343Z,66.90
2023-02-15T01:17:11.442Z,67.23
2023-02-15T01:19:39.885Z,67.44
2023-02-15T01:22:08.399Z,68.07
2023-02-15T01:24:37.637Z,68.19
2023-02-15T01:27:05.628Z,67.56
2023-02-15T01:29:33.885Z,67.58
2023-02-15T01:32:02.092Z,67.42
2023-02-15T01:34:31.129Z,67.93
2023-02-15T01:36:59.028Z,67.77
2023-02-15T01:39:27.633Z,67.56
2023-02-15T01:41:55.661Z,67.91
2023-02-15T01:45:00.177Z,67.91
2023-02-15T01:47:42.292Z,67.77
2023-02-15T01:50:22.641Z,67.49
2023-02-15T01:52:56.957Z,66.54
2023-02-15T01:55:29.759Z,66.35
2023-02-15T01:57:57.736Z,66.51
2023-02-15T02:00:26.457Z,66.61
2023-02-15T02:02:58.467Z,65.90
2023-02-15T02:05:27.476Z,66.02
2023-02-15T02:07:59.847Z,66.37
2023-02-15T02:10:29.396Z,66.11
2023-02-15T02:13:06.066Z,66.31
2023-02-15T02:15:57.735Z,65.51
2023-02-15T02:18:34.626Z,66.27
2023-02-15T02:21:31.669Z,66.39
2023-02-15T02:24:12.647Z,66.16
2023-02-15T02:26:59.094Z,65.76
2023-02-15T02:29:42.199Z,66.06
2023-02-15T02:32:48.817Z,65.96
2023-02-15T02:35:45.930Z,66.09
2023-02-15T02:38:28.736Z,65.65
2023-02-15T02:41:19.028Z,65.67
2023-02-15T02:43:50.509Z,64.99
2023-02-15T02:46:27.581Z,65.82
2023-02-15T02:48:57.889Z,65.92
2023-02-15T02:51:25.945Z,66.12
2023-02-15T02:53:58.293Z,66.76
2023-02-15T02:56:33.197Z,67.35
2023-02-15T02:59:09.007Z,66.63
2023-02-15T03:02:01.027Z,66.19
2023-02-15T03:04:37.716Z,66.01
2023-02-15T03:07:11.466Z,65.30
2023-02-15T03:09:44.478Z,65.94
2023-02-15T03:12:16.369Z,66.40
2023-02-15T03:14:51.649Z,65.35
2023-02-15T03:17:23.959Z,65.56
2023-02-15T03:19:55.999Z,65.55
2023-02-15T03:22:34.710Z,66.02
2023-02-15T03:25:16.300Z,67.00
2023-02-15T03:27:48.774Z,67.23
2023-02-15T03:30:22.781Z,67.28
2023-02-15T03:32:52.967Z,67.64
2023-02-15T03:35:26.004Z,67.95
2023-02-15T03:38:02.164Z,68.65
2023-02-15T03:40:59.804Z,68.51
2023-02-15T03:44:00.574Z,68.91
2023-02-15T03:46:54.084Z,69.10
2023-02-15T03:49:47.381Z,69.36
2023-02-15T03:52:17.712Z,68.64
2023-02-15T03:54:48.834Z,68.59
2023-02-15T03:57:39.766Z,68.89
2023-02-15T04:00:35.983Z,68.99
2023-02-15T04:03:16.292Z,68.76
2023-02-15T04:05:45.553Z,69.33
2023-02-15T04:08:14.279Z,70.08
2023-02-15T04:10:54.493Z,69.30
2023-02-15T04:13:32.981Z,69.28
2023-02-15T04:16:08.153Z,69.41
2023-02-15T04:19:01.300Z,69.04
2023-02-15T04:21:49.539Z,69.05
2023-02-15T04:24:37.008Z,69.33
2023-02-15T04:27:06.838Z,68.84
2023-02-15T04:29:35.268Z,69.01
2023-02-15T04:32:03.782Z,68.12
2023-02-15T04:34:32.126Z,68.42
2023-02-15T04:37:00.016Z,68.85
2023-02-15T04:39:28.269Z,68.97
2023-02-15T04:41:56.218Z,69.10
2023-02-15T04:44:24.524Z,69.10
2023-02-15T04:46:52.297Z,69.51
2023-02-15T04:49:20.543Z,69.30
2023-02-15T04:51:48.573Z,69.92
2023-02-15T04:54:16.838Z,69.50
2023-02-15T04:56:44.780Z,69.23
2023-02-15T04:59:13.566Z,70.08
2023-02-15T05:01:41.436Z,69.45
2023-02-15T05:04:10.568Z,69.75
2023-02-15T05:06:38.424Z,70.08
2023-02-15T05:09:06.657Z,71.32
2023-02-15T05:11:34.633Z,71.21
2023-02-15T05:14:02.886Z,71.48
2023-02-15T05:16:30.911Z,70.58
2023-02-15T05:18:59.455Z,70.44
2023-02-15T05:21:27.605Z,70.57
2023-02-15T05:23:56.035Z,69.63
2023-02-15T05:26:44.237Z,70.32
2023-02-15T05:29:12.518Z,70.69
2023-02-15T05:31:40.635Z,70.88
2023-02-15T05:34:09.072Z,70.72
2023-02-15T05:36:36.912Z,70.75
2023-02-15T05:39:07.043Z,70.87
2023-02-15T05:41:34.861Z,70.54
2023-02-15T05:44:03.115Z,70.83
2023-02-15T05:46:31.044Z,70.77
2023-02-15T05:48:59.381Z,70.66
2023-02-15T05:51:27.291Z,70.24
2023-02-15T05:53:55.684Z,70.65
2023-02-15T05:56:23.555Z,70.28
2023-02-15T05:58:54.288Z,69.60
2023-02-15T06:01:24.125Z,70.41
2023-02-15T06:03:53.318Z,70.08
2023-02-15T06:06:21.182Z,69.60
2023-02-15T06:08:49.830Z,70.57
2023-02-15T06:11:17.795Z,71.33
2023-02-15T06:13:46.076Z,72.27
2023-02-15T06:16:13.970Z,72.06
2023-02-15T06:18:42.382Z,71.96
2023-02-15T06:21:10.348Z,71.97
2023-02-15T06:23:39.053Z,71.35
2023-02-15T06:26:06.905Z,71.47
2023-02-15T06:28:35.242Z,72.06
2023-02-15T06:31:03.128Z,72.46
2023-02-15T06:33:37.527Z,72.28
2023-02-15T06:36:05.484Z,71.87
2023-02-15T06:38:33.870Z,71.37
2023-02-15T06:41:01.805Z,71.80
2023-02-15T06:43:29.909Z,71.49
2023-02-15T06:45:57.863Z,71.18
2023-02-15T06:48:26.222Z,71.28
2023-02-15T06:50:54.071Z,71.63
2023-02-15T06:53:22.231Z,71.59
2023-02-15T06:55:50.042Z,71.51
2023-02-15T06:58:18.273Z,71.15
2023-02-15T07:00:46.192Z,71.38
2023-02-15T07:03:16.115Z,70.77
2023-02-15T07:05:44.932Z,70.87
2023-02-15T07:08:13.199Z,69.91
2023-02-15T07:10:45.018Z,70.17
2023-02-15T07:13:13.206Z,70.62
2023-02-15T07:15:41.109Z,69.93
2023-02-15T07:18:10.541Z,69.67
2023-02-15T07:20:39.270Z,68.08
2023-02-15T07:23:07.466Z,68.99
2023-02-15T07:25:36.097Z,69.62
2023-02-15T07:28:05.264Z,69.53
2023-02-15T07:30:33.236Z,69.61
2023-02-15T07:33:39.832Z,68.57
2023-02-15T07:36:08.311Z,67.75
2023-02-15T07:38:38.302Z,66.94
2023-02-15T07:41:12.681Z,66.27
2023-02-15T07:43:43.447Z,66.36
2023-02-15T07:46:14.463Z,65.40
2023-02-15T07:48:43.417Z,66.51
2023-02-15T07:51:12.805Z,66.36
2023-02-15T07:53:41.675Z,66.45
2023-02-15T07:56:13.923Z,65.76
2023-02-15T07:58:51.862Z,64.46
2023-02-15T08:01:36.429Z,65.06
2023-02-15T08:04:07.555Z,64.08
2023-02-15T08:06:37.224Z,63.03
2023-02-15T08:09:08.588Z,62.58
2023-02-15T08:11:38.810Z,62.09
2023-02-15T08:14:13.157Z,61.56
2023-02-15T08:16:54.162Z,62.28
2023-02-15T08:19:28.013Z,62.67
2023-02-15T08:21:58.561Z,61.99
2023-02-15T08:24:30.348Z,60.07
2023-02-15T08:26:59.601Z,58.74
2023-02-15T08:29:29.562Z,57.03
2023-02-15T08:32:03.389Z,57.93
2023-02-15T08:34:35.667Z,55.50
2023-02-15T08:37:03.837Z,55.24
2023-02-15T08:39:32.213Z,55.64
2023-02-15T08:42:00.431Z,53.95
2023-02-15T08:44:28.872Z,54.51
2023-02-15T08:46:59.855Z,54.55
2023-02-15T08:49:28.042Z,54.50
2023-02-15T08:51:55.914Z,52.84
2023-02-15T08:54:24.457Z,52.30
2023-02-15T08:56:52.604Z,51.76
2023-02-15T08:59:23.478Z,51.81
2023-02-15T09:01:53.087Z,50.31
2023-02-15T09:04:22.137Z,49.54
2023-02-15T09:06:51.043Z,49.65
2023-02-15T09:09:20.355Z,49.37
2023-02-15T09:11:55.833Z,47.93
2023-02-15T09:14:28.142Z,47.93
2023-02-15T09:16:56.611Z,47.31
2023-02-15T09:19:25.832Z,46.80
2023-02-15T09:21:54.852Z,46.37
2023-02-15T09:24:22.791Z,45.65
2023-02-15T09:26:51.163Z,45.87
2023-02-15T09:29:20.041Z,44.67
2023-02-15T09:31:51.258Z,44.20
2023-02-15T09:34:22.618Z,43.11
2023-02-15T09:36:52.220Z,42.21
2023-02-15T09:39:25.412Z,40.11
2023-02-15T09:41:56.224Z,41.41
2023-02-15T09:44:33.204Z,42.00
2023-02-15T09:47:07.576Z,40.90
2023-02-15T09:49:44.173Z,40.06
2023-02-15T09:52:12.296Z,38.92
2023-02-15T09:55:09.748Z,39.25
2023-02-15T09:57:54.879Z,38.25
2023-02-15T10:00:51.020Z,38.48
2023-02-15T10:03:40.591Z,37.85
2023-02-15T10:06:33.666Z,37.11
2023-02-15T10:09:20.344Z,37.40
2023-02-15T10:11:54.590Z,37.55
2023-02-15T10:14:41.241Z,36.70
2023-02-15T10:17:27.347Z,37.07
2023-02-15T10:20:12.416Z,35.68
2023-02-15T10:22:55.116Z,36.02
2023-02-15T10:25:41.542Z,35.41
2023-02-15T10:28:28.010Z,34.43
2023-02-15T10:31:09.398Z,34.67
2023-02-15T10:33:42.483Z,34.50
2023-02-15T10:36:43.182Z,33.98
2023-02-15T10:39:23.271Z,34.30
2023-02-15T10:42:00.337Z,35.51
2023-02-15T10:44:55.962Z,35.18
2023-02-15T10:47:47.163Z,34.84
2023-02-15T10:50:38.450Z,34.80
2023-02-15T10:53:41.635Z,32.92
2023-02-15T10:56:42.728Z,33.90
2023-02-15T10:59:47.062Z,33.99
2023-02-15T11:02:38.060Z,33.92
2023-02-15T11:05:27.330Z,34.17
2023-02-15T11:08:00.621Z,33.12
2023-02-15T11:10:53.093Z,33.24
2023-02-15T11:13:25.351Z,34.27
2023-02-15T11:15:58.823Z,32.43
2023-02-15T11:18:33.924Z,32.45
2023-02-15T11:21:34.060Z,32.15
2023-02-15T11:24:03.198Z,32.17
2023-02-15T11:26:42.731Z,32.01
2023-02-15T11:29:39.960Z,30.62
2023-02-15T11:32:14.139Z,31.15
2023-02-15T11:34:59.580Z,30.65
2023-02-15T11:37:38.145Z,29.70
2023-02-15T11:40:16.278Z,29.20
2023-02-15T11:42:45.780Z,29.48
2023-02-15T11:45:32.148Z,29.71
2023-02-15T11:48:01.606Z,29.79
2023-02-15T11:50:32.195Z,29.09
2023-02-15T11:53:05.816Z,29.58
2023-02-15T11:55:36.311Z,29.80
2023-02-15T11:58:17.806Z,29.16
2023-02-15T12:00:49.151Z,28.76
2023-02-15T12:03:23.604Z,28.87
2023-02-15T12:05:58.446Z,28.53
2023-02-15T12:08:34.897Z,28.58
2023-02-15T12:11:13.392Z,29.28
2023-02-15T12:14:02.096Z,28.26
2023-02-15T12:16:35.781Z,27.76
2023-02-15T12:19:04.256Z,27.77
2023-02-15T12:21:40.978Z,27.88
2023-02-15T12:24:22.863Z,28.05
2023-02-15T12:27:38.336Z,28.23
2023-02-15T12:30:25.084Z,28.38
2023-02-15T12:32:54.359Z,28.21
2023-02-15T12:35:36.854Z,27.93
2023-02-15T12:38:26.792Z,28.53
2023-02-15T12:41:27.674Z,27.67
2023-02-15T12:44:16.227Z,27.70
2023-02-15T12:47:02.601Z,25.79
2023-02-15T12:49:39.771Z,25.66
2023-02-15T12:52:23.190Z,26.96
2023-02-15T12:54:51.818Z,27.10
2023-02-15T12:57:34.137Z,25.40
2023-02-15T13:00:25.744Z,24.67
2023-02-15T13:02:56.580Z,24.51
2023-02-15T13:05:45.118Z,25.19
2023-02-15T13:08:18.063Z,24.73
2023-02-15T13:11:05.157Z,25.02
2023-02-15T13:13:37.504Z,24.95
2023-02-15T13:16:15.313Z,24.90
2023-02-15T13:18:48.473Z,23.77
2023-02-15T13:21:37.751Z,23.58
2023-02-15T13:24:22.396Z,24.10
2023-02-15T13:26:51.023Z,23.58
2023-02-15T13:29:24.942Z,23.77
2023-02-15T13:31:54.924Z,23.92
2023-02-15T13:34:25.906Z,22.88
2023-02-15T13:37:31.486Z,23.79
2023-02-15T13:40:09.403Z,24.43
2023-02-15T13:42:54.303Z,23.51
2023-02-15T13:45:37.702Z,23.33
2023-02-15T13:48:46.869Z,23.32
2023-02-15T13:51:46.395Z,21.98
2023-02-15T13:54:33.424Z,22.50
2023-02-15T13:57:27.454Z,21.62
2023-02-15T14:00:00.036Z,21.65
2023-02-15T14:02:28.144Z,21.84
2023-02-15T14:05:32.058Z,22.16
2023-02-15T14:08:10.023Z,20.93
2023-02-15T14:10:58.372Z,21.50
2023-02-15T14:13:45.244Z,23.31
2023-02-15T14:16:30.572Z,23.03
2023-02-15T14:19:24.999Z,23.10
2023-02-15T14:22:34.704Z,23.21
2023-02-15T14:25:27.402Z,24.17
2023-02-15T14:28:17.822Z,24.19
2023-02-15T14:30:50.362Z,23.70
2023-02-15T14:33:34.765Z,23.44
2023-02-15T14:36:07.379Z,23.85
2023-02-15T14:38:57.174Z,23.44
2023-02-15T14:41:43.796Z,23.26
2023-02-15T14:44:32.274Z,22.97
2023-02-15T14:47:19.826Z,23.60
2023-02-15T14:49:47.865Z,23.71
2023-02-15T14:52:16.283Z,23.68
2023-02-15T14:54:46.992Z,24.03
2023-02-15T14:57:15.101Z,24.20
2023-02-15T14:59:58.606Z,24.21
2023-02-15T15:02:51.014Z,24.13
2023-02-15T15:05:36.140Z,24.04
2023-02-15T15:08:06.620Z,25.06
2023-02-15T15:10:43.298Z,24.37
2023-02-15T15:13:33.514Z,24.58
2023-02-15T15:16:39.710Z,24.74
2023-02-15T15:19:11.833Z,24.26
2023-02-15T15:21:51.850Z,24.21
2023-02-15T15:24:38.691Z,23.20
2023-02-15T15:27:41.301Z,22.92
2023-02-15T15:30:15.532Z,22.56
2023-02-15T15:33:13.027Z,21.92
2023-02-15T15:36:08.591Z,22.31
2023-02-15T15:38:39.208Z,23.29
2023-02-15T15:41:34.555Z,23.63
2023-02-15T15:44:20.801Z,24.49
2023-02-15T15:47:17.864Z,23.75
2023-02-15T15:49:45.849Z,24.25
2023-02-15T15:52:19.937Z,24.40
2023-02-15T15:54:51.368Z,25.21
2023-02-15T15:57:33.490Z,25.25
2023-02-15T16:00:01.401Z,25.59
2023-02-15T16:02:29.745Z,26.54
2023-02-15T16:05:10.620Z,27.50
2023-02-15T16:07:42.311Z,29.25
2023-02-15T16:10:26.981Z,30.32
2023-02-15T16:12:56.036Z,31.49
2023-02-15T16:15:27.489Z,31.70
2023-02-15T16:17:59.107Z,32.48
2023-02-15T16:20:35.317Z,33.13
2023-02-15T16:23:15.885Z,33.40
2023-02-15T16:25:55.520Z,34.34
2023-02-15T16:28:24.217Z,34.23
2023-02-15T16:31:18.586Z,34.47
2023-02-15T16:33:47.318Z,34.21
2023-02-15T16:36:24.308Z,34.52
2023-02-15T16:38:52.433Z,34.64
2023-02-15T16:41:32.310Z,35.36
2023-02-15T16:44:08.905Z,35.17
2023-02-15T16:46:45.085Z,35.22
2023-02-15T16:49:28.827Z,35.71
2023-02-15T16:52:07.086Z,36.72
2023-02-15T16:54:36.590Z,37.42
2023-02-15T16:57:04.737Z,37.72
2023-02-15T16:59:45.599Z,37.61
2023-02-15T17:02:40.204Z,38.20
2023-02-15T17:05:18.696Z,38.09
2023-02-15T17:08:15.895Z,39.10
2023-02-15T17:11:05.689Z,39.43
2023-02-15T17:13:33.886Z,39.49
2023-02-15T17:16:02.471Z,40.21
2023-02-15T17:18:34.060Z,40.47
2023-02-15T17:21:13.411Z,39.90
2023-02-15T17:23:44.376Z,40.53
2023-02-15T17:26:25.155Z,40.67
2023-02-15T17:29:00.326Z,41.74
2023-02-15T17:31:34.209Z,41.78
2023-02-15T17:34:04.057Z,42.63
2023-02-15T17:36:33.058Z,43.17
2023-02-15T17:39:07.695Z,43.93
2023-02-15T17:41:38.517Z,44.12
2023-02-15T17:44:08.907Z,44.29
2023-02-15T17:46:38.629Z,44.83
2023-02-15T17:49:07.000Z,45.48
2023-02-15T17:51:36.646Z,46.08
2023-02-15T17:54:23.165Z,46.29
2023-02-15T17:56:51.439Z,46.60
2023-02-15T17:59:19.433Z,46.74
2023-02-15T18:02:08.393Z,46.85
2023-02-15T18:04:56.332Z,47.35
2023-02-15T18:07:43.525Z,46.92
2023-02-15T18:10:35.510Z,47.53
2023-02-15T18:13:04.203Z,47.07
2023-02-15T18:15:32.238Z,47.34
2023-02-15T18:18:00.564Z,47.38
2023-02-15T18:20:35.031Z,47.90
2023-02-15T18:23:03.427Z,47.78
2023-02-15T18:25:31.351Z,48.07
2023-02-15T18:27:59.576Z,48.32
2023-02-15T18:30:27.795Z,48.43
2023-02-15T18:32:58.170Z,48.67
2023-02-15T18:35:30.133Z,48.42
2023-02-15T18:38:01.205Z,48.44
2023-02-15T18:40:29.666Z,48.79
2023-02-15T18:42:57.959Z,48.90
2023-02-15T18:45:33.307Z,48.91
2023-02-15T18:48:02.224Z,48.83
2023-02-15T18:50:33.930Z,48.79
2023-02-15T18:53:04.575Z,48.37
2023-02-15T18:55:33.965Z,49.22
2023-02-15T18:58:02.736Z,49.12
2023-02-15T19:00:35.200Z,49.42
2023-02-15T19:03:03.822Z,49.59
2023-02-15T19:05:33.354Z,49.28
2023-02-15T19:08:02.844Z,49.71
2023-02-15T19:10:33.314Z,49.82
2023-02-15T19:13:01.819Z,49.93
2023-02-15T19:15:30.759Z,50.33
2023-02-15T19:17:59.135Z,50.64
2023-02-15T19:20:34.295Z,50.53
2023-02-15T19:23:03.234Z,51.20
2023-02-15T19:25:34.506Z,51.24
2023-02-15T19:28:16.710Z,51.24
2023-02-15T19:30:45.015Z,51.67
2023-02-15T19:33:19.300Z,51.21
2023-02-15T19:35:53.348Z,51.72
2023-02-15T19:38:27.230Z,51.61
2023-02-15T19:41:02.496Z,51.61
2023-02-15T19:43:31.333Z,52.14
2023-02-15T19:45:59.897Z,52.11
2023-02-15T19:48:29.180Z,52.48
2023-02-15T19:50:58.093Z,52.42
2023-02-15T19:53:29.407Z,52.51
2023-02-15T19:55:58.725Z,52.45
2023-02-15T19:58:28.176Z,53.07
2023-02-15T20:00:57.365Z,52.78
2023-02-15T20:03:27.526Z,53.51
2023-02-15T20:05:56.874Z,53.41
2023-02-15T20:08:26.591Z,53.55
2023-02-15T20:10:55.365Z,53.24
2023-02-15T20:13:24.146Z,52.74
2023-02-15T20:15:53.466Z,53.11
2023-02-15T20:18:22.984Z,53.80
2023-02-15T20:20:54.576Z,53.06
2023-02-15T20:23:40.019Z,53.72
2023-02-15T20:26:19.540Z,53.82
2023-02-15T20:28:49.914Z,53.56
2023-02-15T20:31:21.764Z,53.22
2023-02-15T20:33:51.590Z,53.74
2023-02-15T20:36:24.017Z,53.99
2023-02-15T20:38:54.214Z,54.12
2023-02-15T20:41:38.651Z,54.45
2023-02-15T20:44:25.139Z,54.91
2023-02-15T20:46:58.558Z,54.90
2023-02-15T20:49:27.873Z,55.18
2023-02-15T20:51:57.288Z,54.67
2023-02-15T20:54:29.192Z,55.02
2023-02-15T20:56:57.405Z,55.15
2023-02-15T20:59:32.077Z,54.98
2023-02-15T21:02:02.878Z,54.88
2023-02-15T21:04:33.756Z,55.16
2023-02-15T21:07:01.773Z,55.46
2023-02-15T21:09:30.146Z,55.20
2023-02-15T21:12:01.506Z,55.53
2023-02-15T21:14:29.732Z,55.36
2023-02-15T21:16:57.723Z,55.97
2023-02-15T21:19:26.057Z,55.92
2023-02-15T21:21:54.342Z,56.03
2023-02-15T21:24:26.120Z,56.11
2023-02-15T21:26:55.660Z,56.47
2023-02-15T21:29:27.100Z,55.89
2023-02-15T21:31:55.230Z,55.97
2023-02-15T21:34:23.652Z,56.46
2023-02-15T21:36:51.551Z,56.88
2023-02-15T21:39:23.902Z,56.90
2023-02-15T21:42:12.254Z,57.05
2023-02-15T21:44:59.105Z,57.10
2023-02-15T21:47:50.774Z,57.17
2023-02-15T21:50:40.960Z,57.53
2023-02-15T21:53:18.418Z,57.28
2023-02-15T21:55:46.522Z,57.46
2023-02-15T21:58:20.711Z,57.39
2023-02-15T22:00:49.448Z,57.43
2023-02-15T22:03:17.356Z,57.24
2023-02-15T22:05:45.392Z,57.46
2023-02-15T22:08:14.388Z,57.71
2023-02-15T22:10:43.401Z,58.03
2023-02-15T22:13:19.937Z,57.64
2023-02-15T22:15:48.142Z,57.29
2023-02-15T22:18:25.178Z,57.59
2023-02-15T22:20:54.694Z,57.98
2023-02-15T22:23:23.778Z,57.72
2023-02-15T22:25:58.653Z,57.75
2023-02-15T22:28:35.872Z,57.86
2023-02-15T22:31:06.829Z,57.89
2023-02-15T22:33:35.116Z,57.59
2023-02-15T22:36:04.152Z,57.26
2023-02-15T22:38:32.568Z,57.60
2023-02-15T22:41:04.670Z,58.00
2023-02-15T22:43:41.405Z,58.43
2023-02-15T22:46:19.177Z,58.13
2023-02-15T22:48:48.448Z,58.11
2023-02-15T22:51:20.242Z,58.10
2023-02-15T22:53:49.902Z,57.98
2023-02-15T22:56:42.258Z,57.55
2023-02-15T22:59:30.032Z,57.49
2023-02-15T23:01:58.407Z,57.07
2023-02-15T23:04:29.324Z,57.01
2023-02-15T23:07:00.759Z,56.95
2023-02-15T23:09:28.478Z,56.91
2023-02-15T23:11:57.342Z,56.94
2023-02-15T23:14:34.671Z,56.87
2023-02-15T23:17:03.037Z,56.91
2023-02-15T23:19:30.812Z,56.35
2023-02-15T23:21:58.799Z,56.84
2023-02-15T23:24:34.814Z,56.26
2023-02-15T23:27:21.794Z,56.24
2023-02-15T23:29:49.611Z,55.46
2023-02-15T23:32:17.863Z,55.57
2023-02-15T23:34:45.684Z,55.66
2023-02-15T23:37:15.695Z,55.69
2023-02-15T23:40:02.394Z,55.60
2023-02-15T23:42:33.818Z,55.97
2023-02-15T23:45:02.716Z,56.32
2023-02-15T23:47:52.265Z,56.21
2023-02-15T23:50:23.164Z,56.73
2023-02-15T23:52:52.674Z,56.97
2023-02-15T23:55:21.433Z,57.29
2023-02-15T23:57:50.197Z,57.09
